sensor_id;sensor_type;location;lat;lon;timestamp;temperature;humidity
16315;DHT22;8266;52.150;4.768;2022-10-31T00:00:08;15.70;99.90
16315;DHT22;8266;52.150;4.768;2022-10-31T00:02:36;15.70;99.90
16315;DHT22;8266;52.150;4.768;2022-10-31T00:05:04;15.70;99.90
16315;DHT22;8266;52.150;4.768;2022-10-31T00:07:31;15.70;99.90
16315;DHT22;8266;52.150;4.768;2022-10-31T00:09:58;15.70;99.90
16315;DHT22;8266;52.150;4.768;2022-10-31T00:12:26;15.70;99.90
16315;DHT22;8266;52.150;4.768;2022-10-31T00:14:53;15.70;99.90
16315;DHT22;8266;52.150;4.768;2022-10-31T00:17:20;15.70;99.90
16315;DHT22;8266;52.150;4.768;2022-10-31T00:19:48;15.70;99.90
16315;DHT22;8266;52.150;4.768;2022-10-31T00:22:15;15.70;99.90
16315;DHT22;8266;52.150;4.768;2022-10-31T00:24:42;15.70;99.90
16315;DHT22;8266;52.150;4.768;2022-10-31T00:27:09;15.80;99.90
16315;DHT22;8266;52.150;4.768;2022-10-31T00:29:36;15.70;99.90
16315;DHT22;8266;52.150;4.768;2022-10-31T00:32:03;15.80;99.90
16315;DHT22;8266;52.150;4.768;2022-10-31T00:34:30;15.70;99.90
16315;DHT22;8266;52.150;4.768;2022-10-31T00:36:59;15.70;99.90
16315;DHT22;8266;52.150;4.768;2022-10-31T00:39:25;15.70;99.90
16315;DHT22;8266;52.150;4.768;2022-10-31T00:41:52;15.70;99.90
16315;DHT22;8266;52.150;4.768;2022-10-31T00:44:19;15.70;99.90
16315;DHT22;8266;52.150;4.768;2022-10-31T00:46:46;15.70;99.90
16315;DHT22;8266;52.150;4.768;2022-10-31T00:49:13;15.60;99.90
16315;DHT22;8266;52.150;4.768;2022-10-31T00:51:40;15.60;99.90
16315;DHT22;8266;52.150;4.768;2022-10-31T00:54:08;15.60;99.90
16315;DHT22;8266;52.150;4.768;2022-10-31T00:56:35;15.60;99.90
16315;DHT22;8266;52.150;4.768;2022-10-31T00:59:02;15.60;99.90
16315;DHT22;8266;52.150;4.768;2022-10-31T01:01:29;15.50;99.90
16315;DHT22;8266;52.150;4.768;2022-10-31T01:03:56;15.50;99.90
16315;DHT22;8266;52.150;4.768;2022-10-31T01:06:23;15.50;99.90
16315;DHT22;8266;52.150;4.768;2022-10-31T01:08:50;15.40;99.90
16315;DHT22;8266;52.150;4.768;2022-10-31T01:11:20;15.40;99.90
16315;DHT22;8266;52.150;4.768;2022-10-31T01:13:49;15.40;99.90
16315;DHT22;8266;52.150;4.768;2022-10-31T01:16:19;15.30;99.90
16315;DHT22;8266;52.150;4.768;2022-10-31T01:18:46;15.30;99.90
16315;DHT22;8266;52.150;4.768;2022-10-31T01:21:15;15.30;99.90
16315;DHT22;8266;52.150;4.768;2022-10-31T01:23:42;15.30;99.90
16315;DHT22;8266;52.150;4.768;2022-10-31T01:26:11;15.20;99.90
16315;DHT22;8266;52.150;4.768;2022-10-31T01:28:44;15.20;99.90
16315;DHT22;8266;52.150;4.768;2022-10-31T01:31:11;15.10;99.90
16315;DHT22;8266;52.150;4.768;2022-10-31T01:33:38;15.10;99.90
16315;DHT22;8266;52.150;4.768;2022-10-31T01:36:14;15.10;99.90
16315;DHT22;8266;52.150;4.768;2022-10-31T01:38:42;15.00;99.90
16315;DHT22;8266;52.150;4.768;2022-10-31T01:41:10;15.00;99.90
16315;DHT22;8266;52.150;4.768;2022-10-31T01:43:57;15.00;99.90
16315;DHT22;8266;52.150;4.768;2022-10-31T01:46:27;14.90;99.90
16315;DHT22;8266;52.150;4.768;2022-10-31T01:48:59;14.90;99.90
16315;DHT22;8266;52.150;4.768;2022-10-31T01:51:29;14.90;99.90
16315;DHT22;8266;52.150;4.768;2022-10-31T01:54:00;14.90;99.90
16315;DHT22;8266;52.150;4.768;2022-10-31T01:56:28;14.80;99.90
16315;DHT22;8266;52.150;4.768;2022-10-31T01:58:57;14.80;99.90
16315;DHT22;8266;52.150;4.768;2022-10-31T02:01:26;14.80;99.90
16315;DHT22;8266;52.150;4.768;2022-10-31T02:03:55;14.80;99.90
16315;DHT22;8266;52.150;4.768;2022-10-31T02:06:30;14.70;99.90
16315;DHT22;8266;52.150;4.768;2022-10-31T02:09:00;14.70;99.90
16315;DHT22;8266;52.150;4.768;2022-10-31T02:11:28;14.70;99.90
16315;DHT22;8266;52.150;4.768;2022-10-31T02:13:57;14.60;99.90
16315;DHT22;8266;52.150;4.768;2022-10-31T02:16:25;14.60;99.90
16315;DHT22;8266;52.150;4.768;2022-10-31T02:18:52;14.60;99.90
16315;DHT22;8266;52.150;4.768;2022-10-31T02:21:22;14.60;99.90
16315;DHT22;8266;52.150;4.768;2022-10-31T02:26:58;14.50;99.90
16315;DHT22;8266;52.150;4.768;2022-10-31T02:29:52;14.50;99.90
16315;DHT22;8266;52.150;4.768;2022-10-31T02:32:26;14.40;99.90
16315;DHT22;8266;52.150;4.768;2022-10-31T02:34:58;14.40;99.90
16315;DHT22;8266;52.150;4.768;2022-10-31T02:37:33;14.40;99.90
16315;DHT22;8266;52.150;4.768;2022-10-31T02:40:06;14.30;99.90
16315;DHT22;8266;52.150;4.768;2022-10-31T02:42:44;14.30;99.90
16315;DHT22;8266;52.150;4.768;2022-10-31T02:45:21;14.30;99.90
16315;DHT22;8266;52.150;4.768;2022-10-31T02:47:56;14.20;99.90
16315;DHT22;8266;52.150;4.768;2022-10-31T02:50:28;14.20;99.90
16315;DHT22;8266;52.150;4.768;2022-10-31T02:52:56;14.20;99.90
16315;DHT22;8266;52.150;4.768;2022-10-31T02:55:44;14.20;99.90
16315;DHT22;8266;52.150;4.768;2022-10-31T02:58:15;14.20;99.90
16315;DHT22;8266;52.150;4.768;2022-10-31T03:01:07;14.20;99.90
16315;DHT22;8266;52.150;4.768;2022-10-31T03:03:46;14.10;99.90
16315;DHT22;8266;52.150;4.768;2022-10-31T03:06:22;14.10;99.90
16315;DHT22;8266;52.150;4.768;2022-10-31T03:08:55;14.10;99.90
16315;DHT22;8266;52.150;4.768;2022-10-31T03:11:31;14.10;99.90
16315;DHT22;8266;52.150;4.768;2022-10-31T03:14:03;14.00;99.90
16315;DHT22;8266;52.150;4.768;2022-10-31T03:16:39;14.00;99.90
16315;DHT22;8266;52.150;4.768;2022-10-31T03:19:13;14.00;99.90
16315;DHT22;8266;52.150;4.768;2022-10-31T03:21:44;14.00;99.90
16315;DHT22;8266;52.150;4.768;2022-10-31T03:24:13;14.00;99.90
16315;DHT22;8266;52.150;4.768;2022-10-31T03:26:44;13.90;99.90
16315;DHT22;8266;52.150;4.768;2022-10-31T03:29:14;14.00;99.90
16315;DHT22;8266;52.150;4.768;2022-10-31T03:31:46;13.90;99.90
16315;DHT22;8266;52.150;4.768;2022-10-31T03:34:16;13.90;99.90
16315;DHT22;8266;52.150;4.768;2022-10-31T03:36:45;13.90;99.90
16315;DHT22;8266;52.150;4.768;2022-10-31T03:39:15;13.90;99.90
16315;DHT22;8266;52.150;4.768;2022-10-31T03:41:46;13.90;99.90
16315;DHT22;8266;52.150;4.768;2022-10-31T03:44:16;13.80;99.90
16315;DHT22;8266;52.150;4.768;2022-10-31T03:46:44;13.80;99.90
16315;DHT22;8266;52.150;4.768;2022-10-31T03:49:12;13.80;99.90
16315;DHT22;8266;52.150;4.768;2022-10-31T03:51:45;13.80;99.90
16315;DHT22;8266;52.150;4.768;2022-10-31T03:54:22;13.80;99.90
16315;DHT22;8266;52.150;4.768;2022-10-31T03:56:53;13.80;99.90
16315;DHT22;8266;52.150;4.768;2022-10-31T03:59:24;13.80;99.90
16315;DHT22;8266;52.150;4.768;2022-10-31T04:01:57;13.70;99.90
16315;DHT22;8266;52.150;4.768;2022-10-31T04:04:26;13.80;99.90
16315;DHT22;8266;52.150;4.768;2022-10-31T04:06:56;13.70;99.90
16315;DHT22;8266;52.150;4.768;2022-10-31T04:09:25;13.70;99.90
16315;DHT22;8266;52.150;4.768;2022-10-31T04:11:54;13.70;99.90
16315;DHT22;8266;52.150;4.768;2022-10-31T04:14:25;13.70;99.90
16315;DHT22;8266;52.150;4.768;2022-10-31T04:16:53;13.70;99.90
16315;DHT22;8266;52.150;4.768;2022-10-31T04:19:20;13.60;99.90
16315;DHT22;8266;52.150;4.768;2022-10-31T04:21:47;13.60;99.90
16315;DHT22;8266;52.150;4.768;2022-10-31T04:24:16;13.70;99.90
16315;DHT22;8266;52.150;4.768;2022-10-31T04:26:42;13.60;99.90
16315;DHT22;8266;52.150;4.768;2022-10-31T04:29:09;13.50;99.90
16315;DHT22;8266;52.150;4.768;2022-10-31T04:31:36;13.60;99.90
16315;DHT22;8266;52.150;4.768;2022-10-31T04:34:03;13.60;99.90
16315;DHT22;8266;52.150;4.768;2022-10-31T04:36:30;13.50;99.90
16315;DHT22;8266;52.150;4.768;2022-10-31T04:38:57;13.50;99.90
16315;DHT22;8266;52.150;4.768;2022-10-31T04:41:26;13.50;99.90
16315;DHT22;8266;52.150;4.768;2022-10-31T04:43:53;13.50;99.90
16315;DHT22;8266;52.150;4.768;2022-10-31T04:46:20;13.50;99.90
16315;DHT22;8266;52.150;4.768;2022-10-31T04:48:47;13.40;99.90
16315;DHT22;8266;52.150;4.768;2022-10-31T04:51:13;13.40;99.90
16315;DHT22;8266;52.150;4.768;2022-10-31T04:53:40;13.40;99.90
16315;DHT22;8266;52.150;4.768;2022-10-31T04:56:07;13.40;99.90
16315;DHT22;8266;52.150;4.768;2022-10-31T04:58:36;13.40;99.90
16315;DHT22;8266;52.150;4.768;2022-10-31T05:01:03;13.30;99.90
16315;DHT22;8266;52.150;4.768;2022-10-31T05:03:30;13.30;99.90
16315;DHT22;8266;52.150;4.768;2022-10-31T05:05:57;13.30;99.90
16315;DHT22;8266;52.150;4.768;2022-10-31T05:08:24;13.30;99.90
16315;DHT22;8266;52.150;4.768;2022-10-31T05:10:51;13.30;99.90
16315;DHT22;8266;52.150;4.768;2022-10-31T05:13:18;13.20;99.90
16315;DHT22;8266;52.150;4.768;2022-10-31T05:15:46;13.20;99.90
16315;DHT22;8266;52.150;4.768;2022-10-31T05:18:13;13.30;99.90
16315;DHT22;8266;52.150;4.768;2022-10-31T05:20:40;13.30;99.90
16315;DHT22;8266;52.150;4.768;2022-10-31T05:23:07;13.20;99.90
16315;DHT22;8266;52.150;4.768;2022-10-31T05:25:35;13.20;99.90
16315;DHT22;8266;52.150;4.768;2022-10-31T05:28:03;13.20;99.90
16315;DHT22;8266;52.150;4.768;2022-10-31T05:30:31;13.20;99.90
16315;DHT22;8266;52.150;4.768;2022-10-31T05:33:00;13.10;99.90
16315;DHT22;8266;52.150;4.768;2022-10-31T05:35:29;13.10;99.90
16315;DHT22;8266;52.150;4.768;2022-10-31T05:37:57;13.10;99.90
16315;DHT22;8266;52.150;4.768;2022-10-31T05:40:25;13.10;99.90
16315;DHT22;8266;52.150;4.768;2022-10-31T05:42:53;13.10;99.90
16315;DHT22;8266;52.150;4.768;2022-10-31T05:45:21;13.10;99.90
16315;DHT22;8266;52.150;4.768;2022-10-31T05:47:52;13.00;99.90
16315;DHT22;8266;52.150;4.768;2022-10-31T05:50:21;13.00;99.90
16315;DHT22;8266;52.150;4.768;2022-10-31T05:52:54;13.00;99.90
16315;DHT22;8266;52.150;4.768;2022-10-31T05:55:21;13.00;99.90
16315;DHT22;8266;52.150;4.768;2022-10-31T05:57:48;13.00;99.90
16315;DHT22;8266;52.150;4.768;2022-10-31T06:00:16;13.00;99.90
16315;DHT22;8266;52.150;4.768;2022-10-31T06:02:43;12.90;99.90
16315;DHT22;8266;52.150;4.768;2022-10-31T06:05:11;12.90;99.90
16315;DHT22;8266;52.150;4.768;2022-10-31T06:07:39;12.90;99.90
16315;DHT22;8266;52.150;4.768;2022-10-31T06:10:07;12.90;99.90
16315;DHT22;8266;52.150;4.768;2022-10-31T06:12:35;12.90;99.90
16315;DHT22;8266;52.150;4.768;2022-10-31T06:15:04;12.90;99.90
16315;DHT22;8266;52.150;4.768;2022-10-31T06:17:32;12.90;99.90
16315;DHT22;8266;52.150;4.768;2022-10-31T06:19:59;12.90;99.90
16315;DHT22;8266;52.150;4.768;2022-10-31T06:22:27;12.80;99.90
16315;DHT22;8266;52.150;4.768;2022-10-31T06:24:55;12.80;99.90
16315;DHT22;8266;52.150;4.768;2022-10-31T06:27:22;12.80;99.90
16315;DHT22;8266;52.150;4.768;2022-10-31T06:29:49;12.80;99.90
16315;DHT22;8266;52.150;4.768;2022-10-31T06:32:17;12.90;99.90
16315;DHT22;8266;52.150;4.768;2022-10-31T06:34:44;12.90;99.90
16315;DHT22;8266;52.150;4.768;2022-10-31T06:37:14;12.90;99.90
16315;DHT22;8266;52.150;4.768;2022-10-31T06:39:41;12.90;99.90
16315;DHT22;8266;52.150;4.768;2022-10-31T06:42:09;12.90;99.90
16315;DHT22;8266;52.150;4.768;2022-10-31T06:44:36;12.90;99.90
16315;DHT22;8266;52.150;4.768;2022-10-31T06:47:03;13.00;99.90
16315;DHT22;8266;52.150;4.768;2022-10-31T06:49:31;12.90;99.90
16315;DHT22;8266;52.150;4.768;2022-10-31T06:51:58;12.90;99.90
16315;DHT22;8266;52.150;4.768;2022-10-31T06:54:25;13.00;99.90
16315;DHT22;8266;52.150;4.768;2022-10-31T06:56:52;13.00;99.90
16315;DHT22;8266;52.150;4.768;2022-10-31T06:59:20;13.00;99.90
16315;DHT22;8266;52.150;4.768;2022-10-31T07:01:47;13.00;99.90
16315;DHT22;8266;52.150;4.768;2022-10-31T07:04:14;13.00;99.90
16315;DHT22;8266;52.150;4.768;2022-10-31T07:06:41;13.00;99.90
16315;DHT22;8266;52.150;4.768;2022-10-31T07:09:08;13.00;99.90
16315;DHT22;8266;52.150;4.768;2022-10-31T07:11:35;13.00;99.90
16315;DHT22;8266;52.150;4.768;2022-10-31T07:14:02;13.00;99.90
16315;DHT22;8266;52.150;4.768;2022-10-31T07:16:30;13.00;99.90
16315;DHT22;8266;52.150;4.768;2022-10-31T07:18:57;13.00;99.90
16315;DHT22;8266;52.150;4.768;2022-10-31T07:21:24;13.00;99.90
16315;DHT22;8266;52.150;4.768;2022-10-31T07:23:51;13.10;99.90
16315;DHT22;8266;52.150;4.768;2022-10-31T07:26:18;13.10;99.90
16315;DHT22;8266;52.150;4.768;2022-10-31T07:28:45;13.10;99.90
16315;DHT22;8266;52.150;4.768;2022-10-31T07:31:12;13.10;99.90
16315;DHT22;8266;52.150;4.768;2022-10-31T07:33:41;13.20;99.90
16315;DHT22;8266;52.150;4.768;2022-10-31T07:36:08;13.20;99.90
16315;DHT22;8266;52.150;4.768;2022-10-31T07:38:35;13.20;99.90
16315;DHT22;8266;52.150;4.768;2022-10-31T07:41:02;13.20;99.90
16315;DHT22;8266;52.150;4.768;2022-10-31T07:43:28;13.30;99.90
16315;DHT22;8266;52.150;4.768;2022-10-31T07:45:55;13.30;99.90
16315;DHT22;8266;52.150;4.768;2022-10-31T07:48:22;13.30;99.90
16315;DHT22;8266;52.150;4.768;2022-10-31T07:50:51;13.40;99.90
16315;DHT22;8266;52.150;4.768;2022-10-31T07:53:18;13.40;99.90
16315;DHT22;8266;52.150;4.768;2022-10-31T07:55:45;13.40;99.90
16315;DHT22;8266;52.150;4.768;2022-10-31T07:58:13;13.50;99.90
16315;DHT22;8266;52.150;4.768;2022-10-31T08:00:42;13.50;99.90
16315;DHT22;8266;52.150;4.768;2022-10-31T08:03:11;13.50;99.90
16315;DHT22;8266;52.150;4.768;2022-10-31T08:05:38;13.50;99.90
16315;DHT22;8266;52.150;4.768;2022-10-31T08:08:08;13.60;99.90
16315;DHT22;8266;52.150;4.768;2022-10-31T08:10:35;13.60;99.90
16315;DHT22;8266;52.150;4.768;2022-10-31T08:13:04;13.60;99.90
16315;DHT22;8266;52.150;4.768;2022-10-31T08:15:32;13.60;99.90
16315;DHT22;8266;52.150;4.768;2022-10-31T08:18:03;13.60;99.90
16315;DHT22;8266;52.150;4.768;2022-10-31T08:20:30;13.60;99.90
16315;DHT22;8266;52.150;4.768;2022-10-31T08:22:58;13.60;99.90
16315;DHT22;8266;52.150;4.768;2022-10-31T08:25:27;13.60;99.90
16315;DHT22;8266;52.150;4.768;2022-10-31T08:27:56;13.60;99.90
16315;DHT22;8266;52.150;4.768;2022-10-31T08:30:24;13.60;99.90
16315;DHT22;8266;52.150;4.768;2022-10-31T08:32:59;13.50;99.90
16315;DHT22;8266;52.150;4.768;2022-10-31T08:35:27;13.60;99.90
16315;DHT22;8266;52.150;4.768;2022-10-31T08:37:54;13.60;99.90
16315;DHT22;8266;52.150;4.768;2022-10-31T08:40:21;13.60;99.90
16315;DHT22;8266;52.150;4.768;2022-10-31T08:42:55;13.60;99.90
16315;DHT22;8266;52.150;4.768;2022-10-31T08:45:22;13.70;99.90
16315;DHT22;8266;52.150;4.768;2022-10-31T08:47:49;13.80;99.90
16315;DHT22;8266;52.150;4.768;2022-10-31T08:50:16;13.80;99.90
16315;DHT22;8266;52.150;4.768;2022-10-31T08:52:43;13.90;99.90
16315;DHT22;8266;52.150;4.768;2022-10-31T08:55:10;14.00;99.90
16315;DHT22;8266;52.150;4.768;2022-10-31T08:57:37;14.20;99.90
16315;DHT22;8266;52.150;4.768;2022-10-31T09:00:07;14.40;99.90
16315;DHT22;8266;52.150;4.768;2022-10-31T09:02:34;14.50;99.90
16315;DHT22;8266;52.150;4.768;2022-10-31T09:05:02;14.80;99.90
16315;DHT22;8266;52.150;4.768;2022-10-31T09:07:29;15.00;99.90
16315;DHT22;8266;52.150;4.768;2022-10-31T09:09:56;15.30;99.90
16315;DHT22;8266;52.150;4.768;2022-10-31T09:12:23;15.60;99.90
16315;DHT22;8266;52.150;4.768;2022-10-31T09:14:50;15.90;99.90
16315;DHT22;8266;52.150;4.768;2022-10-31T09:17:18;16.20;99.90
16315;DHT22;8266;52.150;4.768;2022-10-31T09:19:45;16.50;99.90
16315;DHT22;8266;52.150;4.768;2022-10-31T09:22:12;16.90;99.90
16315;DHT22;8266;52.150;4.768;2022-10-31T09:24:39;17.20;99.90
16315;DHT22;8266;52.150;4.768;2022-10-31T09:27:06;17.50;99.90
16315;DHT22;8266;52.150;4.768;2022-10-31T09:29:34;17.80;99.90
16315;DHT22;8266;52.150;4.768;2022-10-31T09:32:01;18.10;99.90
16315;DHT22;8266;52.150;4.768;2022-10-31T09:34:29;18.30;99.90
16315;DHT22;8266;52.150;4.768;2022-10-31T09:36:56;18.50;99.90
16315;DHT22;8266;52.150;4.768;2022-10-31T09:39:23;18.60;99.90
16315;DHT22;8266;52.150;4.768;2022-10-31T09:42:23;18.70;99.90
16315;DHT22;8266;52.150;4.768;2022-10-31T09:45:00;18.70;99.90
16315;DHT22;8266;52.150;4.768;2022-10-31T09:47:37;18.60;99.90
16315;DHT22;8266;52.150;4.768;2022-10-31T09:50:17;18.60;99.90
16315;DHT22;8266;52.150;4.768;2022-10-31T09:52:52;18.50;99.90
16315;DHT22;8266;52.150;4.768;2022-10-31T09:55:27;18.40;99.90
16315;DHT22;8266;52.150;4.768;2022-10-31T09:57:59;18.20;99.90
16315;DHT22;8266;52.150;4.768;2022-10-31T10:00:27;18.10;99.90
16315;DHT22;8266;52.150;4.768;2022-10-31T10:02:57;18.00;99.90
16315;DHT22;8266;52.150;4.768;2022-10-31T10:05:32;18.00;99.90
16315;DHT22;8266;52.150;4.768;2022-10-31T10:08:07;17.90;99.90
16315;DHT22;8266;52.150;4.768;2022-10-31T10:10:42;17.80;99.90
16315;DHT22;8266;52.150;4.768;2022-10-31T10:13:33;17.80;99.90
16315;DHT22;8266;52.150;4.768;2022-10-31T10:16:22;17.80;99.90
16315;DHT22;8266;52.150;4.768;2022-10-31T10:19:02;17.80;99.90
16315;DHT22;8266;52.150;4.768;2022-10-31T10:21:40;17.70;99.90
16315;DHT22;8266;52.150;4.768;2022-10-31T10:24:21;17.80;99.90
16315;DHT22;8266;52.150;4.768;2022-10-31T10:27:01;17.80;99.90
16315;DHT22;8266;52.150;4.768;2022-10-31T10:29:38;17.80;99.90
16315;DHT22;8266;52.150;4.768;2022-10-31T10:32:09;17.80;99.90
16315;DHT22;8266;52.150;4.768;2022-10-31T10:34:43;17.80;99.90
16315;DHT22;8266;52.150;4.768;2022-10-31T10:37:22;17.70;99.90
16315;DHT22;8266;52.150;4.768;2022-10-31T10:39:54;17.80;99.90
16315;DHT22;8266;52.150;4.768;2022-10-31T10:42:25;17.80;99.90
16315;DHT22;8266;52.150;4.768;2022-10-31T10:45:15;17.80;99.90
16315;DHT22;8266;52.150;4.768;2022-10-31T10:48:07;17.80;99.90
16315;DHT22;8266;52.150;4.768;2022-10-31T10:50:39;17.80;99.90
16315;DHT22;8266;52.150;4.768;2022-10-31T10:53:25;17.90;99.90
16315;DHT22;8266;52.150;4.768;2022-10-31T10:56:08;17.90;99.90
16315;DHT22;8266;52.150;4.768;2022-10-31T10:58:38;18.00;99.90
16315;DHT22;8266;52.150;4.768;2022-10-31T11:01:11;18.10;99.90
16315;DHT22;8266;52.150;4.768;2022-10-31T11:03:39;18.30;99.90
16315;DHT22;8266;52.150;4.768;2022-10-31T11:06:16;18.50;99.90
16315;DHT22;8266;52.150;4.768;2022-10-31T11:08:48;18.60;99.90
16315;DHT22;8266;52.150;4.768;2022-10-31T11:11:23;18.70;99.90
16315;DHT22;8266;52.150;4.768;2022-10-31T11:13:57;18.70;99.90
16315;DHT22;8266;52.150;4.768;2022-10-31T11:16:31;18.70;99.90
16315;DHT22;8266;52.150;4.768;2022-10-31T11:19:08;18.80;99.90
16315;DHT22;8266;52.150;4.768;2022-10-31T11:21:36;18.80;99.90
16315;DHT22;8266;52.150;4.768;2022-10-31T11:24:13;18.80;99.90
16315;DHT22;8266;52.150;4.768;2022-10-31T11:26:42;18.80;99.90
16315;DHT22;8266;52.150;4.768;2022-10-31T11:29:14;18.90;99.90
16315;DHT22;8266;52.150;4.768;2022-10-31T11:31:43;18.90;99.90
16315;DHT22;8266;52.150;4.768;2022-10-31T11:34:19;19.00;99.90
16315;DHT22;8266;52.150;4.768;2022-10-31T11:36:48;19.10;99.90
16315;DHT22;8266;52.150;4.768;2022-10-31T11:39:22;19.10;99.90
16315;DHT22;8266;52.150;4.768;2022-10-31T11:41:50;19.20;99.90
16315;DHT22;8266;52.150;4.768;2022-10-31T11:44:21;19.20;99.90
16315;DHT22;8266;52.150;4.768;2022-10-31T11:46:51;19.20;99.90
16315;DHT22;8266;52.150;4.768;2022-10-31T11:49:20;19.20;99.90
16315;DHT22;8266;52.150;4.768;2022-10-31T11:51:54;19.20;99.90
16315;DHT22;8266;52.150;4.768;2022-10-31T11:54:26;19.20;99.90
16315;DHT22;8266;52.150;4.768;2022-10-31T11:56:54;19.20;99.90
16315;DHT22;8266;52.150;4.768;2022-10-31T11:59:26;19.20;99.90
16315;DHT22;8266;52.150;4.768;2022-10-31T12:01:55;19.20;99.90
16315;DHT22;8266;52.150;4.768;2022-10-31T12:04:33;19.20;99.90
16315;DHT22;8266;52.150;4.768;2022-10-31T12:07:02;19.10;99.90
16315;DHT22;8266;52.150;4.768;2022-10-31T12:09:33;19.10;99.90
16315;DHT22;8266;52.150;4.768;2022-10-31T12:12:25;19.10;99.90
16315;DHT22;8266;52.150;4.768;2022-10-31T12:15:03;19.10;99.90
16315;DHT22;8266;52.150;4.768;2022-10-31T12:17:36;19.10;99.90
16315;DHT22;8266;52.150;4.768;2022-10-31T12:20:17;19.10;99.90
16315;DHT22;8266;52.150;4.768;2022-10-31T12:23:05;19.10;99.90
16315;DHT22;8266;52.150;4.768;2022-10-31T12:25:41;19.10;99.90
16315;DHT22;8266;52.150;4.768;2022-10-31T12:28:23;19.20;99.90
16315;DHT22;8266;52.150;4.768;2022-10-31T12:31:05;19.20;99.90
16315;DHT22;8266;52.150;4.768;2022-10-31T12:33:44;19.20;99.90
16315;DHT22;8266;52.150;4.768;2022-10-31T12:39:21;19.20;99.90
16315;DHT22;8266;52.150;4.768;2022-10-31T12:41:57;19.30;99.90
16315;DHT22;8266;52.150;4.768;2022-10-31T12:44:44;19.30;99.90
16315;DHT22;8266;52.150;4.768;2022-10-31T12:47:28;19.40;99.90
16315;DHT22;8266;52.150;4.768;2022-10-31T12:50:05;19.50;99.90
16315;DHT22;8266;52.150;4.768;2022-10-31T12:52:46;19.50;99.90
16315;DHT22;8266;52.150;4.768;2022-10-31T12:55:41;19.50;99.90
16315;DHT22;8266;52.150;4.768;2022-10-31T12:58:19;19.50;99.90
16315;DHT22;8266;52.150;4.768;2022-10-31T13:00:49;19.60;99.90
16315;DHT22;8266;52.150;4.768;2022-10-31T13:03:25;19.60;99.90
16315;DHT22;8266;52.150;4.768;2022-10-31T13:05:56;19.60;99.90
16315;DHT22;8266;52.150;4.768;2022-10-31T13:08:28;19.60;99.90
16315;DHT22;8266;52.150;4.768;2022-10-31T13:11:02;19.60;99.90
16315;DHT22;8266;52.150;4.768;2022-10-31T13:13:37;19.60;99.90
16315;DHT22;8266;52.150;4.768;2022-10-31T13:16:11;19.60;99.90
16315;DHT22;8266;52.150;4.768;2022-10-31T13:18:40;19.60;99.90
16315;DHT22;8266;52.150;4.768;2022-10-31T13:21:12;19.60;99.90
16315;DHT22;8266;52.150;4.768;2022-10-31T13:23:43;19.60;99.90
16315;DHT22;8266;52.150;4.768;2022-10-31T13:26:13;19.60;99.90
16315;DHT22;8266;52.150;4.768;2022-10-31T13:28:46;19.60;99.90
16315;DHT22;8266;52.150;4.768;2022-10-31T13:31:14;19.60;99.90
16315;DHT22;8266;52.150;4.768;2022-10-31T13:33:44;19.60;99.90
16315;DHT22;8266;52.150;4.768;2022-10-31T13:36:19;19.60;99.90
16315;DHT22;8266;52.150;4.768;2022-10-31T13:38:51;19.60;99.90
16315;DHT22;8266;52.150;4.768;2022-10-31T13:41:30;19.60;99.90
16315;DHT22;8266;52.150;4.768;2022-10-31T13:44:14;19.60;99.90
16315;DHT22;8266;52.150;4.768;2022-10-31T13:46:42;19.60;99.90
16315;DHT22;8266;52.150;4.768;2022-10-31T13:49:36;19.60;99.90
16315;DHT22;8266;52.150;4.768;2022-10-31T13:52:23;19.60;99.90
16315;DHT22;8266;52.150;4.768;2022-10-31T13:54:52;19.60;99.90
16315;DHT22;8266;52.150;4.768;2022-10-31T13:57:27;19.60;99.90
16315;DHT22;8266;52.150;4.768;2022-10-31T14:00:00;19.60;99.90
16315;DHT22;8266;52.150;4.768;2022-10-31T14:02:30;19.60;99.90
16315;DHT22;8266;52.150;4.768;2022-10-31T14:04:59;19.60;99.90
16315;DHT22;8266;52.150;4.768;2022-10-31T14:07:28;19.60;99.90
16315;DHT22;8266;52.150;4.768;2022-10-31T14:09:59;19.60;99.90
16315;DHT22;8266;52.150;4.768;2022-10-31T14:12:31;19.60;99.90
16315;DHT22;8266;52.150;4.768;2022-10-31T14:15:04;19.60;99.90
16315;DHT22;8266;52.150;4.768;2022-10-31T14:17:38;19.50;99.90
16315;DHT22;8266;52.150;4.768;2022-10-31T14:20:39;19.50;99.90
16315;DHT22;8266;52.150;4.768;2022-10-31T14:23:32;19.50;99.90
16315;DHT22;8266;52.150;4.768;2022-10-31T14:26:16;19.50;99.90
16315;DHT22;8266;52.150;4.768;2022-10-31T14:28:44;19.50;99.90
16315;DHT22;8266;52.150;4.768;2022-10-31T14:31:32;19.50;99.90
16315;DHT22;8266;52.150;4.768;2022-10-31T14:34:01;19.50;99.90
16315;DHT22;8266;52.150;4.768;2022-10-31T14:36:38;19.50;99.90
16315;DHT22;8266;52.150;4.768;2022-10-31T14:39:13;19.50;99.90
16315;DHT22;8266;52.150;4.768;2022-10-31T14:41:53;19.60;99.90
16315;DHT22;8266;52.150;4.768;2022-10-31T14:47:36;19.60;99.90
16315;DHT22;8266;52.150;4.768;2022-10-31T14:50:24;19.50;99.90
16315;DHT22;8266;52.150;4.768;2022-10-31T14:52:57;19.50;99.90
16315;DHT22;8266;52.150;4.768;2022-10-31T14:55:26;19.50;99.90
16315;DHT22;8266;52.150;4.768;2022-10-31T14:57:55;19.50;99.90
16315;DHT22;8266;52.150;4.768;2022-10-31T15:00:24;19.50;99.90
16315;DHT22;8266;52.150;4.768;2022-10-31T15:03:05;19.40;99.90
16315;DHT22;8266;52.150;4.768;2022-10-31T15:05:35;19.40;99.90
16315;DHT22;8266;52.150;4.768;2022-10-31T15:08:13;19.40;99.90
16315;DHT22;8266;52.150;4.768;2022-10-31T15:10:44;19.30;99.90
16315;DHT22;8266;52.150;4.768;2022-10-31T15:13:18;19.30;99.90
16315;DHT22;8266;52.150;4.768;2022-10-31T15:15:45;19.30;99.90
16315;DHT22;8266;52.150;4.768;2022-10-31T15:18:16;19.20;99.90
16315;DHT22;8266;52.150;4.768;2022-10-31T15:20:45;19.30;99.90
16315;DHT22;8266;52.150;4.768;2022-10-31T15:23:19;19.20;99.90
16315;DHT22;8266;52.150;4.768;2022-10-31T15:25:47;19.20;99.90
16315;DHT22;8266;52.150;4.768;2022-10-31T15:28:15;19.20;99.90
16315;DHT22;8266;52.150;4.768;2022-10-31T15:30:50;19.10;99.90
16315;DHT22;8266;52.150;4.768;2022-10-31T15:33:24;19.10;99.90
16315;DHT22;8266;52.150;4.768;2022-10-31T15:35:56;19.00;99.90
16315;DHT22;8266;52.150;4.768;2022-10-31T15:38:24;19.00;99.90
16315;DHT22;8266;52.150;4.768;2022-10-31T15:40:54;19.00;99.90
16315;DHT22;8266;52.150;4.768;2022-10-31T15:43:21;19.00;99.90
16315;DHT22;8266;52.150;4.768;2022-10-31T15:45:49;18.90;99.90
16315;DHT22;8266;52.150;4.768;2022-10-31T15:48:17;19.00;99.90
16315;DHT22;8266;52.150;4.768;2022-10-31T15:50:48;18.90;99.90
16315;DHT22;8266;52.150;4.768;2022-10-31T15:53:18;18.90;99.90
16315;DHT22;8266;52.150;4.768;2022-10-31T15:55:48;18.90;99.90
16315;DHT22;8266;52.150;4.768;2022-10-31T15:58:17;18.90;99.90
16315;DHT22;8266;52.150;4.768;2022-10-31T16:00:44;18.80;99.90
16315;DHT22;8266;52.150;4.768;2022-10-31T16:03:23;18.80;99.90
16315;DHT22;8266;52.150;4.768;2022-10-31T16:05:53;18.80;99.90
16315;DHT22;8266;52.150;4.768;2022-10-31T16:08:26;18.80;99.90
16315;DHT22;8266;52.150;4.768;2022-10-31T16:10:58;18.70;99.90
16315;DHT22;8266;52.150;4.768;2022-10-31T16:13:29;18.70;99.90
16315;DHT22;8266;52.150;4.768;2022-10-31T16:15:59;18.80;99.90
16315;DHT22;8266;52.150;4.768;2022-10-31T16:18:29;18.70;99.90